createdAt,value
2023-06-07T00:01:36.096Z,10.6
2023-06-07T00:02:44.254Z,10.6
2023-06-07T00:03:50.011Z,10.6
2023-06-07T00:04:57.176Z,10.6
2023-06-07T00:06:04.007Z,10.6
2023-06-07T00:07:11.063Z,10.6
2023-06-07T00:08:17.745Z,10.6
2023-06-07T00:09:24.810Z,10.6
2023-06-07T00:10:32.447Z,10.6
2023-06-07T00:11:39.021Z,10.6
2023-06-07T00:12:46.453Z,10.6
2023-06-07T00:13:52.701Z,10.6
2023-06-07T00:14:59.807Z,10.6
2023-06-07T00:16:06.918Z,10.5
2023-06-07T00:17:14.025Z,10.5
2023-06-07T00:18:21.131Z,10.5
2023-06-07T00:20:34.888Z,10.5
2023-06-07T00:21:41.891Z,10.5
2023-06-07T00:22:49.022Z,10.5
2023-06-07T00:23:56.206Z,10.5
2023-06-07T00:25:02.759Z,10.5
2023-06-07T00:26:09.825Z,10.4
2023-06-07T00:27:16.915Z,10.4
2023-06-07T00:28:24.157Z,10.4
2023-06-07T00:29:31.102Z,10.4
2023-06-07T00:30:37.771Z,10.4
2023-06-07T00:31:44.888Z,10.4
2023-06-07T00:32:51.941Z,10.4
2023-06-07T00:33:59.023Z,10.4
2023-06-07T00:35:06.200Z,10.4
2023-06-07T00:36:12.759Z,10.4
2023-06-07T00:37:19.834Z,10.4
2023-06-07T00:38:26.938Z,10.4
2023-06-07T00:39:34.047Z,10.4
2023-06-07T00:40:41.142Z,10.4
2023-06-07T00:41:47.742Z,10.4
2023-06-07T00:42:54.882Z,10.4
2023-06-07T00:44:01.955Z,10.4
2023-06-07T00:45:09.078Z,10.4
2023-06-07T00:46:16.185Z,10.4
2023-06-07T00:47:22.720Z,10.4
2023-06-07T00:48:29.982Z,10.4
2023-06-07T00:49:36.948Z,10.4
2023-06-07T00:50:44.027Z,10.4
2023-06-07T00:51:51.171Z,10.4
2023-06-07T00:52:57.745Z,10.4
2023-06-07T00:54:04.862Z,10.4
2023-06-07T00:55:11.946Z,10.4
2023-06-07T00:56:19.065Z,10.4
2023-06-07T00:57:26.267Z,10.4
2023-06-07T00:58:32.725Z,10.4
2023-06-07T00:59:39.893Z,10.4
2023-06-07T01:00:46.935Z,10.4
2023-06-07T01:01:54.066Z,10.4
2023-06-07T01:03:00.754Z,10.4
2023-06-07T01:05:14.897Z,10.4
2023-06-07T01:06:21.927Z,10.4
2023-06-07T01:07:29.104Z,10.4
2023-06-07T01:08:35.717Z,10.4
2023-06-07T01:09:42.753Z,10.4
2023-06-07T01:10:49.876Z,10.4
2023-06-07T01:11:56.946Z,10.4
2023-06-07T01:13:04.075Z,10.4
2023-06-07T01:14:10.644Z,10.4
2023-06-07T01:15:17.787Z,10.4
2023-06-07T01:16:24.966Z,10.4
2023-06-07T01:17:31.979Z,10.4
2023-06-07T01:18:39.097Z,10.4
2023-06-07T01:19:45.697Z,10.3
2023-06-07T01:20:52.756Z,10.3
2023-06-07T01:21:59.902Z,10.3
2023-06-07T01:23:07.060Z,10.3
2023-06-07T01:24:14.274Z,10.3
2023-06-07T01:25:20.710Z,10.3
2023-06-07T01:26:27.814Z,10.3
2023-06-07T01:27:34.931Z,10.3
2023-06-07T01:28:42.059Z,10.3
2023-06-07T01:29:49.117Z,10.3
2023-06-07T01:30:55.737Z,10.2
2023-06-07T01:32:02.837Z,10.2
2023-06-07T01:33:09.987Z,10.2
2023-06-07T01:34:17.066Z,10.1
2023-06-07T01:35:24.083Z,10.1
2023-06-07T01:36:30.697Z,10.2
2023-06-07T01:37:37.781Z,10.1
2023-06-07T01:38:44.919Z,10.1
2023-06-07T01:39:52.065Z,10.1
2023-06-07T01:40:59.152Z,10.1
2023-06-07T01:42:05.718Z,10
2023-06-07T01:43:12.779Z,10
2023-06-07T01:44:19.987Z,10
2023-06-07T01:45:27.103Z,10
2023-06-07T01:46:34.241Z,10
2023-06-07T01:47:40.687Z,10
2023-06-07T01:48:47.863Z,10
2023-06-07T01:49:54.938Z,10
2023-06-07T01:51:02.060Z,10
2023-06-07T01:52:09.173Z,10
2023-06-07T01:53:15.762Z,10
2023-06-07T01:54:22.795Z,10
2023-06-07T01:55:29.972Z,10
2023-06-07T01:56:37.086Z,10
2023-06-07T01:57:44.114Z,10
2023-06-07T01:58:50.702Z,10
2023-06-07T01:59:57.870Z,10
2023-06-07T02:01:04.957Z,10
2023-06-07T02:02:12.100Z,10
2023-06-07T02:03:19.234Z,10
2023-06-07T02:04:25.733Z,10
2023-06-07T02:05:32.846Z,10
2023-06-07T02:06:39.976Z,10
2023-06-07T02:08:54.167Z,10
2023-06-07T02:10:00.869Z,10
2023-06-07T02:11:07.866Z,10
2023-06-07T02:12:14.972Z,9.9
2023-06-07T02:13:22.053Z,9.9
2023-06-07T02:14:29.274Z,9.9
2023-06-07T02:15:35.764Z,9.9
2023-06-07T02:16:42.872Z,9.9
2023-06-07T02:17:50.072Z,9.9
2023-06-07T02:18:57.071Z,9.9
2023-06-07T02:20:03.954Z,9.8
2023-06-07T02:21:10.804Z,9.8
2023-06-07T02:22:17.890Z,9.8
2023-06-07T02:23:25.034Z,9.8
2023-06-07T02:25:38.711Z,9.8
2023-06-07T02:26:45.777Z,9.8
2023-06-07T02:27:52.869Z,9.8
2023-06-07T02:29:00.008Z,9.8
2023-06-07T02:30:07.238Z,9.8
2023-06-07T02:31:13.668Z,9.8
2023-06-07T02:32:20.745Z,9.8
2023-06-07T02:33:27.902Z,9.8
2023-06-07T02:34:34.985Z,9.8
2023-06-07T02:35:42.065Z,9.8
2023-06-07T02:36:48.673Z,9.8
2023-06-07T02:37:55.765Z,9.7
2023-06-07T02:39:02.883Z,9.8
2023-06-07T02:40:09.999Z,9.8
2023-06-07T02:41:17.110Z,9.7
2023-06-07T02:42:23.694Z,9.7
2023-06-07T02:43:30.759Z,9.7
2023-06-07T02:44:37.920Z,9.7
2023-06-07T02:45:45.024Z,9.7
2023-06-07T02:46:52.140Z,9.7
2023-06-07T02:47:58.743Z,9.7
2023-06-07T02:49:05.835Z,9.7
2023-06-07T02:50:12.910Z,9.7
2023-06-07T02:51:19.980Z,9.7
2023-06-07T02:52:27.124Z,9.7
2023-06-07T02:53:33.684Z,9.7
2023-06-07T02:54:40.822Z,9.7
2023-06-07T02:55:47.900Z,9.7
2023-06-07T02:56:55.015Z,9.6
2023-06-07T02:58:02.097Z,9.6
2023-06-07T02:59:08.734Z,9.6
2023-06-07T03:00:15.825Z,9.6
2023-06-07T03:01:26.071Z,9.6
2023-06-07T03:02:30.187Z,9.6
2023-06-07T03:03:37.228Z,9.6
2023-06-07T03:04:43.679Z,9.6
2023-06-07T03:05:50.872Z,9.6
2023-06-07T03:06:57.955Z,9.6
2023-06-07T03:08:05.039Z,9.6
2023-06-07T03:09:12.167Z,9.6
2023-06-07T03:10:18.740Z,9.6
2023-06-07T03:12:32.930Z,9.6
2023-06-07T03:13:40.056Z,9.6
2023-06-07T03:14:47.141Z,9.6
2023-06-07T03:15:53.720Z,9.6
2023-06-07T03:17:00.841Z,9.6
2023-06-07T03:18:07.980Z,9.6
2023-06-07T03:19:15.091Z,9.6
2023-06-07T03:20:22.119Z,9.6
2023-06-07T03:21:28.746Z,9.6
2023-06-07T03:22:35.855Z,9.6
2023-06-07T03:23:43.018Z,9.6
2023-06-07T03:24:50.079Z,9.5
2023-06-07T03:25:57.213Z,9.5
2023-06-07T03:27:03.748Z,9.5
2023-06-07T03:28:10.856Z,9.5
2023-06-07T03:29:18.023Z,9.5
2023-06-07T03:30:25.080Z,9.5
2023-06-07T03:31:32.189Z,9.5
2023-06-07T03:32:38.812Z,9.5
2023-06-07T03:33:45.846Z,9.5
2023-06-07T03:34:52.935Z,9.5
2023-06-07T03:36:00.118Z,9.5
2023-06-07T03:37:07.186Z,9.5
2023-06-07T03:38:13.745Z,9.5
2023-06-07T03:39:20.864Z,9.5
2023-06-07T03:40:27.966Z,9.5
2023-06-07T03:41:35.104Z,9.5
2023-06-07T03:42:42.152Z,9.5
2023-06-07T03:48:16.731Z,9.6
2023-06-07T03:49:23.832Z,9.6
2023-06-07T03:50:30.880Z,9.7
2023-06-07T03:51:38.019Z,9.7
2023-06-07T03:53:51.676Z,9.8
2023-06-07T03:54:58.786Z,9.8
2023-06-07T03:56:05.897Z,9.8
2023-06-07T03:57:12.978Z,9.8
2023-06-07T03:58:20.091Z,9.8
2023-06-07T03:59:26.691Z,9.8
2023-06-07T04:00:33.778Z,9.8
2023-06-07T04:01:40.881Z,9.9
2023-06-07T04:02:48.111Z,9.9
2023-06-07T04:03:55.418Z,9.9
2023-06-07T04:05:01.873Z,10
2023-06-07T04:06:08.785Z,10
2023-06-07T04:07:15.917Z,10
2023-06-07T04:08:23.007Z,10
2023-06-07T04:09:30.162Z,10
2023-06-07T04:10:36.739Z,10
2023-06-07T04:11:43.782Z,10.1
2023-06-07T04:12:50.903Z,10.1
2023-06-07T04:13:58.014Z,10.1
2023-06-07T04:16:11.733Z,10.1
2023-06-07T04:17:18.819Z,10.1
2023-06-07T04:18:25.939Z,10.1
2023-06-07T04:19:33.042Z,10.2
2023-06-07T04:20:40.143Z,10.2
2023-06-07T04:21:46.755Z,10.2
2023-06-07T04:22:53.786Z,10.2
2023-06-07T04:24:00.968Z,10.3
2023-06-07T04:25:08.018Z,10.3
2023-06-07T04:26:15.143Z,10.3
2023-06-07T04:27:22.345Z,10.3
2023-06-07T04:28:28.934Z,10.3
2023-06-07T04:29:36.000Z,10.3
2023-06-07T04:30:43.036Z,10.4
2023-06-07T04:31:50.273Z,10.4
2023-06-07T04:32:56.819Z,10.4
2023-06-07T04:34:03.865Z,10.4
2023-06-07T04:35:10.963Z,10.4
2023-06-07T04:36:18.061Z,10.5
2023-06-07T04:37:25.182Z,10.5
2023-06-07T04:38:33.312Z,10.5
2023-06-07T04:39:38.843Z,10.5
2023-06-07T04:40:45.956Z,10.5
2023-06-07T04:41:53.028Z,10.5
2023-06-07T04:43:00.198Z,10.6
2023-06-07T04:44:06.790Z,10.6
2023-06-07T04:45:13.856Z,10.7
2023-06-07T04:46:21.009Z,10.7
2023-06-07T04:47:28.107Z,10.7
2023-06-07T04:48:35.172Z,10.7
2023-06-07T04:49:41.761Z,10.7
2023-06-07T04:50:48.860Z,10.7
2023-06-07T04:51:56.013Z,10.7
2023-06-07T04:53:03.094Z,10.8
2023-06-07T04:54:10.173Z,10.8
2023-06-07T04:55:16.824Z,10.8
2023-06-07T04:56:23.946Z,10.8
2023-06-07T04:57:30.947Z,10.8
2023-06-07T04:58:38.102Z,10.8
2023-06-07T04:59:45.163Z,10.8
2023-06-07T05:00:51.732Z,10.9
2023-06-07T05:01:58.973Z,10.9
2023-06-07T05:03:06.180Z,10.9
2023-06-07T05:04:13.051Z,11
2023-06-07T05:05:20.246Z,11
2023-06-07T05:06:26.740Z,11
2023-06-07T05:07:33.903Z,11
2023-06-07T05:08:40.964Z,11
2023-06-07T05:09:48.209Z,11
2023-06-07T05:10:54.698Z,11
2023-06-07T05:12:01.767Z,11
2023-06-07T05:13:08.880Z,11.1
2023-06-07T05:14:15.993Z,11.1
2023-06-07T05:15:23.071Z,11.1
2023-06-07T05:16:29.706Z,11.1
2023-06-07T05:17:36.804Z,11.1
2023-06-07T05:19:51.027Z,11.1
2023-06-07T05:22:04.702Z,11.2
2023-06-07T05:23:11.775Z,11.2
2023-06-07T05:24:18.950Z,11.3
2023-06-07T05:25:26.002Z,11.3
2023-06-07T05:26:33.093Z,11.3
2023-06-07T05:27:39.794Z,11.3
2023-06-07T05:28:46.812Z,11.4
2023-06-07T05:29:53.969Z,11.4
2023-06-07T05:31:01.036Z,11.4
2023-06-07T05:32:08.139Z,11.4
2023-06-07T05:33:14.706Z,11.4
2023-06-07T05:34:21.807Z,11.4
2023-06-07T05:35:28.929Z,11.4
2023-06-07T05:36:36.113Z,11.5
2023-06-07T05:37:43.125Z,11.5
2023-06-07T05:38:49.709Z,11.5
2023-06-07T05:39:56.886Z,11.5
2023-06-07T05:41:03.928Z,11.5
2023-06-07T05:42:11.078Z,11.5
2023-06-07T05:43:18.153Z,11.6
2023-06-07T05:44:24.752Z,11.6
2023-06-07T05:45:31.824Z,11.7
2023-06-07T05:46:39.043Z,11.7
2023-06-07T05:47:46.072Z,11.7
2023-06-07T05:48:53.102Z,11.7
2023-06-07T05:49:59.808Z,11.7
2023-06-07T05:51:08.473Z,11.8
2023-06-07T05:52:13.904Z,11.8
2023-06-07T05:53:21.037Z,11.8
2023-06-07T05:54:28.156Z,11.9
2023-06-07T05:55:34.755Z,11.9
2023-06-07T05:56:41.830Z,12
2023-06-07T05:57:48.945Z,12
2023-06-07T05:58:56.067Z,12
2023-06-07T06:00:03.458Z,12
2023-06-07T06:01:09.744Z,12
2023-06-07T06:02:16.953Z,12
2023-06-07T06:03:23.962Z,12.1
2023-06-07T06:04:31.065Z,12.1
2023-06-07T06:05:38.159Z,12.1
2023-06-07T06:06:44.805Z,12.2
2023-06-07T06:07:51.847Z,12.2
2023-06-07T06:08:58.964Z,12.2
2023-06-07T06:10:06.440Z,12.2
2023-06-07T06:11:13.155Z,12.3
2023-06-07T06:12:19.773Z,12.4
2023-06-07T06:13:26.887Z,12.4
2023-06-07T06:14:33.936Z,12.4
2023-06-07T06:15:41.064Z,12.4
2023-06-07T06:16:47.679Z,12.4
2023-06-07T06:17:54.804Z,12.4
2023-06-07T06:19:01.859Z,12.5
2023-06-07T06:20:09.092Z,12.5
2023-06-07T06:21:16.100Z,12.5
2023-06-07T06:23:29.871Z,12.5
2023-06-07T06:24:36.903Z,12.5
2023-06-07T06:25:44.022Z,12.5
2023-06-07T06:26:51.054Z,12.5
2023-06-07T06:27:57.849Z,12.5
2023-06-07T06:29:04.789Z,12.5
2023-06-07T06:30:11.913Z,12.6
2023-06-07T06:31:19.033Z,12.6
2023-06-07T06:32:26.143Z,12.6
2023-06-07T06:33:32.691Z,12.6
2023-06-07T06:34:39.804Z,12.6
2023-06-07T06:35:46.905Z,12.6
2023-06-07T06:36:53.984Z,12.7
2023-06-07T06:38:01.081Z,12.7
2023-06-07T06:39:07.795Z,12.7
2023-06-07T06:40:14.800Z,12.7
2023-06-07T06:41:21.902Z,12.8
2023-06-07T06:42:29.037Z,12.8
2023-06-07T06:43:36.131Z,12.8
2023-06-07T06:44:42.668Z,12.8
2023-06-07T06:45:49.811Z,12.9
2023-06-07T06:46:56.959Z,13
2023-06-07T06:48:04.028Z,13
2023-06-07T06:50:32.294Z,13
2023-06-07T06:51:25.996Z,13.1
2023-06-07T06:52:31.961Z,13.2
2023-06-07T06:53:39.057Z,13.2
2023-06-07T06:54:45.697Z,13.2
2023-06-07T06:55:52.684Z,13.3
2023-06-07T06:56:59.815Z,13.3
2023-06-07T06:58:06.935Z,13.3
2023-06-07T06:59:14.370Z,13.4
2023-06-07T07:00:20.591Z,13.4
2023-06-07T07:01:27.773Z,13.5
2023-06-07T07:02:34.837Z,13.5
2023-06-07T07:03:41.906Z,13.5
2023-06-07T07:04:49.048Z,13.5
2023-06-07T07:05:55.630Z,13.7
2023-06-07T07:07:02.720Z,13.8
2023-06-07T07:08:09.807Z,13.8
2023-06-07T07:09:16.971Z,14
2023-06-07T07:10:24.083Z,14
2023-06-07T07:11:31.953Z,14.1
2023-06-07T07:12:37.788Z,14.1
2023-06-07T07:13:44.897Z,14.2
2023-06-07T07:14:52.049Z,14.2
2023-06-07T07:15:59.037Z,14.3
2023-06-07T07:17:05.703Z,14.4
2023-06-07T07:18:12.751Z,14.5
2023-06-07T07:19:19.855Z,14.5
2023-06-07T07:20:27.035Z,14.6
2023-06-07T07:21:34.101Z,14.6
2023-06-07T07:22:40.638Z,14.7
2023-06-07T07:23:47.843Z,14.7
2023-06-07T07:24:54.877Z,14.7
2023-06-07T07:27:09.061Z,14.7
2023-06-07T07:28:15.664Z,14.8
2023-06-07T07:29:22.777Z,14.8
2023-06-07T07:30:29.878Z,14.7
2023-06-07T07:31:37.005Z,14.7
2023-06-07T07:32:44.166Z,14.5
2023-06-07T07:33:50.676Z,14.5
2023-06-07T07:34:57.871Z,14.5
2023-06-07T07:36:04.890Z,14.5
2023-06-07T07:37:11.969Z,14.5
2023-06-07T07:38:19.152Z,14.5
2023-06-07T07:39:25.668Z,14.5
2023-06-07T07:40:32.798Z,14.5
2023-06-07T07:41:39.875Z,14.4
2023-06-07T07:42:46.997Z,14.4
2023-06-07T07:43:54.107Z,14.4
2023-06-07T07:45:00.679Z,14.5
2023-06-07T07:46:07.810Z,14.5
2023-06-07T07:47:14.891Z,14.5
2023-06-07T07:48:21.972Z,14.5
2023-06-07T07:49:29.282Z,14.5
2023-06-07T07:50:35.704Z,14.5
2023-06-07T07:51:42.792Z,14.5
2023-06-07T07:52:49.870Z,14.6
2023-06-07T07:53:57.009Z,14.5
2023-06-07T07:55:04.545Z,14.5
2023-06-07T07:56:10.681Z,14.6
2023-06-07T07:57:17.802Z,14.6
2023-06-07T07:58:24.898Z,14.6
2023-06-07T07:59:32.007Z,14.6
2023-06-07T08:00:38.636Z,14.6
2023-06-07T08:01:45.747Z,14.6
2023-06-07T08:02:52.883Z,14.7
2023-06-07T08:03:59.928Z,14.7
2023-06-07T08:05:07.428Z,14.7
2023-06-07T08:06:13.733Z,14.7
2023-06-07T08:07:20.714Z,14.7
2023-06-07T08:08:27.831Z,14.7
2023-06-07T08:09:34.953Z,14.8
2023-06-07T08:10:41.997Z,14.8
2023-06-07T08:11:48.612Z,14.8
2023-06-07T08:12:55.726Z,14.9
2023-06-07T08:14:02.807Z,14.9
2023-06-07T08:15:09.976Z,15
2023-06-07T08:16:17.114Z,15
2023-06-07T08:18:30.728Z,15
2023-06-07T08:19:37.871Z,14.9
2023-06-07T08:20:44.973Z,14.9
2023-06-07T08:21:52.020Z,14.8
2023-06-07T08:22:58.641Z,14.7
2023-06-07T08:24:05.864Z,14.7
2023-06-07T08:25:12.840Z,14.7
2023-06-07T08:26:19.935Z,14.6
2023-06-07T08:27:27.061Z,14.6
2023-06-07T08:28:33.624Z,14.6
2023-06-07T08:30:47.925Z,14.4
2023-06-07T08:31:55.068Z,14.4
2023-06-07T08:33:02.050Z,14.4
2023-06-07T08:34:08.637Z,14.4
2023-06-07T08:35:15.755Z,14.3
2023-06-07T08:36:22.822Z,14.3
2023-06-07T08:37:30.036Z,14.3
2023-06-07T08:38:37.069Z,14.3
2023-06-07T08:39:43.652Z,14.2
2023-06-07T08:40:50.780Z,14.1
2023-06-07T08:41:57.915Z,14.1
2023-06-07T08:43:04.982Z,14.1
2023-06-07T08:44:12.068Z,14.1
2023-06-07T08:45:18.653Z,14.1
2023-06-07T08:46:25.798Z,14
2023-06-07T08:47:32.900Z,14
2023-06-07T08:48:39.987Z,14
2023-06-07T08:49:47.086Z,14
2023-06-07T08:50:53.658Z,14
2023-06-07T08:52:14.865Z,14
2023-06-07T08:53:07.901Z,14
2023-06-07T08:54:15.030Z,14
2023-06-07T08:55:22.097Z,14
2023-06-07T08:56:28.734Z,14
2023-06-07T08:57:35.814Z,14
2023-06-07T08:58:42.856Z,14
2023-06-07T08:59:49.977Z,14
2023-06-07T09:00:57.134Z,14
2023-06-07T09:02:03.687Z,14
2023-06-07T09:03:10.837Z,14
2023-06-07T09:04:17.956Z,14
2023-06-07T09:05:25.004Z,14
2023-06-07T09:06:32.093Z,14.1
2023-06-07T09:07:38.683Z,14.1
2023-06-07T09:08:45.780Z,14.1
2023-06-07T09:09:52.908Z,14.2
2023-06-07T09:11:00.000Z,14.2
2023-06-07T09:12:07.106Z,14.2
2023-06-07T09:13:13.659Z,14.2
2023-06-07T09:14:20.768Z,14.3
2023-06-07T09:15:27.949Z,14.3
2023-06-07T09:16:35.158Z,14.3
2023-06-07T09:17:41.785Z,14.4
2023-06-07T09:18:48.875Z,14.4
2023-06-07T09:19:55.861Z,14.4
2023-06-07T09:21:02.885Z,14.4
2023-06-07T09:22:10.054Z,14.4
2023-06-07T09:23:16.635Z,14.4
2023-06-07T09:24:23.728Z,14.4
2023-06-07T09:25:30.829Z,14.4
2023-06-07T09:26:38.162Z,14.5
2023-06-07T09:27:45.066Z,14.5
2023-06-07T09:28:51.628Z,14.5
2023-06-07T09:29:58.712Z,14.4
2023-06-07T09:31:05.871Z,14.4
2023-06-07T09:32:12.940Z,14.4
2023-06-07T09:34:26.649Z,14.4
2023-06-07T09:35:33.696Z,14.4
2023-06-07T09:36:40.836Z,14.4
2023-06-07T09:37:47.958Z,14.4
2023-06-07T09:38:55.052Z,14.4
2023-06-07T09:40:02.391Z,14.5
2023-06-07T09:41:08.771Z,14.5
2023-06-07T09:42:15.845Z,14.5
2023-06-07T09:43:22.926Z,14.5
2023-06-07T09:44:30.156Z,14.5
2023-06-07T09:46:43.731Z,14.6
2023-06-07T09:47:50.868Z,14.6
2023-06-07T09:48:58.102Z,14.6
2023-06-07T09:50:05.226Z,14.6
2023-06-07T09:51:11.637Z,14.6
2023-06-07T09:52:18.801Z,14.7
2023-06-07T09:53:25.857Z,14.7
2023-06-07T09:54:33.002Z,14.7
2023-06-07T09:55:40.058Z,14.8
2023-06-07T09:56:46.681Z,14.8
2023-06-07T09:57:53.730Z,14.8
2023-06-07T09:59:00.915Z,14.9
2023-06-07T10:00:08.326Z,15
2023-06-07T10:01:15.101Z,15
2023-06-07T10:02:21.772Z,15.1
2023-06-07T10:03:28.918Z,15.2
2023-06-07T10:04:36.025Z,15.2
2023-06-07T10:05:43.004Z,15.3
2023-06-07T10:06:50.128Z,15.3
2023-06-07T10:07:56.717Z,15.2
2023-06-07T10:09:03.737Z,15.4
2023-06-07T10:10:11.646Z,15.6
2023-06-07T10:11:17.971Z,15.7
2023-06-07T10:12:25.124Z,15.7
2023-06-07T10:13:31.648Z,15.7
2023-06-07T10:14:38.789Z,15.7
2023-06-07T10:15:45.928Z,15.7
2023-06-07T10:16:53.074Z,15.6
2023-06-07T10:17:59.637Z,15.6
2023-06-07T10:19:06.774Z,15.5
2023-06-07T10:20:13.807Z,15.6
2023-06-07T10:21:20.947Z,15.5
2023-06-07T10:22:28.034Z,15.4
2023-06-07T10:23:34.659Z,15.4
2023-06-07T10:24:41.713Z,15.4
2023-06-07T10:25:48.809Z,15.4
2023-06-07T10:26:56.010Z,15.4
2023-06-07T10:28:02.984Z,15.4
2023-06-07T10:29:09.608Z,15.5
2023-06-07T10:30:16.671Z,15.6
2023-06-07T10:31:26.142Z,15.6
2023-06-07T10:32:30.989Z,15.8
2023-06-07T10:33:38.089Z,16
2023-06-07T10:34:44.569Z,16.2
2023-06-07T10:35:51.729Z,16.4
2023-06-07T10:38:05.945Z,16.7
2023-06-07T10:39:13.018Z,16.8
2023-06-07T10:40:19.681Z,16.9
2023-06-07T10:41:26.683Z,17
2023-06-07T10:42:33.784Z,17.1
2023-06-07T10:43:40.885Z,17.1
2023-06-07T10:44:48.043Z,17.1
2023-06-07T10:45:54.629Z,17.1
2023-06-07T10:47:01.828Z,17.1
2023-06-07T10:48:08.934Z,17.1
2023-06-07T10:49:15.930Z,17.1
2023-06-07T10:50:23.088Z,17
2023-06-07T10:51:29.644Z,16.9
2023-06-07T10:52:36.819Z,16.9
2023-06-07T10:53:43.795Z,16.9
2023-06-07T10:54:51.042Z,16.7
2023-06-07T10:55:58.063Z,16.7
2023-06-07T10:57:04.672Z,16.6
2023-06-07T10:58:11.734Z,16.6
2023-06-07T10:59:18.855Z,16.8
2023-06-07T11:00:25.980Z,16.9
2023-06-07T11:01:33.164Z,16.9
2023-06-07T11:02:39.931Z,16.9
2023-06-07T11:03:46.954Z,16.9
2023-06-07T11:04:54.056Z,16.9
2023-06-07T11:06:01.097Z,16.9
2023-06-07T11:07:08.065Z,16.9
2023-06-07T11:08:14.670Z,16.7
2023-06-07T11:09:21.742Z,16.6
2023-06-07T11:10:28.929Z,16.4
2023-06-07T11:11:36.023Z,16.4
2023-06-07T11:12:42.719Z,16.3
2023-06-07T11:14:56.748Z,16.3
2023-06-07T11:16:03.948Z,16.2
2023-06-07T11:17:11.050Z,16.2
2023-06-07T11:18:17.634Z,16.1
2023-06-07T11:19:24.682Z,16.1
2023-06-07T11:20:31.861Z,16.1
2023-06-07T11:21:38.895Z,16.1
2023-06-07T11:22:46.010Z,16.3
2023-06-07T11:23:52.615Z,16.3
2023-06-07T11:24:59.702Z,16.4
2023-06-07T11:26:06.849Z,16.4
2023-06-07T11:27:13.843Z,16.6
2023-06-07T11:28:20.950Z,16.6
2023-06-07T11:29:27.674Z,16.6
2023-06-07T11:30:34.756Z,16.6
2023-06-07T11:31:41.852Z,16.6
2023-06-07T11:32:48.903Z,16.6
2023-06-07T11:33:56.146Z,16.6
2023-06-07T11:35:02.662Z,16.6
2023-06-07T11:36:10.072Z,16.6
2023-06-07T11:37:16.799Z,16.6
2023-06-07T11:38:23.905Z,16.6
2023-06-07T11:39:30.977Z,16.5
2023-06-07T11:41:46.463Z,16.5
2023-06-07T11:42:51.762Z,16.5
2023-06-07T11:43:58.875Z,16.4
2023-06-07T11:45:06.019Z,16.4
2023-06-07T11:46:12.584Z,16.4
2023-06-07T11:47:19.754Z,16.4
2023-06-07T11:48:26.897Z,16.4
2023-06-07T11:49:33.917Z,16.4
2023-06-07T11:50:40.998Z,16.4
2023-06-07T11:51:47.631Z,16.4
2023-06-07T11:52:54.714Z,16.3
2023-06-07T11:54:01.813Z,16.3
2023-06-07T11:55:08.929Z,16.1
2023-06-07T11:56:15.501Z,16
2023-06-07T11:57:22.577Z,16
2023-06-07T11:58:29.756Z,16
2023-06-07T11:59:36.822Z,15.9
2023-06-07T12:00:43.970Z,16
2023-06-07T12:01:50.533Z,16
2023-06-07T12:02:57.809Z,16
2023-06-07T12:04:04.852Z,16
2023-06-07T12:05:11.791Z,16
2023-06-07T12:06:19.029Z,16.1
2023-06-07T12:07:26.046Z,16.3
2023-06-07T12:08:32.782Z,16.4
2023-06-07T12:09:39.753Z,16.4
2023-06-07T12:10:46.842Z,16.4
2023-06-07T12:11:53.913Z,16.3
2023-06-07T12:13:00.492Z,16.2
2023-06-07T12:14:07.651Z,16.1
2023-06-07T12:15:14.764Z,16.1
2023-06-07T12:16:21.930Z,16.1
2023-06-07T12:17:29.009Z,16.1
2023-06-07T12:18:35.532Z,16
2023-06-07T12:19:42.609Z,16
2023-06-07T12:20:49.743Z,16.1
2023-06-07T12:21:56.855Z,16.3
2023-06-07T12:23:03.932Z,16.4
2023-06-07T12:24:10.595Z,16.4
2023-06-07T12:25:17.694Z,16.5
2023-06-07T12:26:24.769Z,16.4
2023-06-07T12:27:31.850Z,16.4
2023-06-07T12:28:38.962Z,16.3
2023-06-07T12:29:45.542Z,16.4
2023-06-07T12:30:52.668Z,16.4
2023-06-07T12:31:59.803Z,16.4
2023-06-07T12:33:06.926Z,16.4
2023-06-07T12:34:14.025Z,16.4
2023-06-07T12:35:20.557Z,16.4
2023-06-07T12:36:27.752Z,16.6
2023-06-07T12:37:34.774Z,16.7
2023-06-07T12:38:41.845Z,16.7
2023-06-07T12:39:48.977Z,16.9
2023-06-07T12:40:55.649Z,16.9
2023-06-07T12:43:09.768Z,17
2023-06-07T12:45:24.011Z,17.1
2023-06-07T12:46:30.650Z,17.2
2023-06-07T12:47:37.709Z,17.3
2023-06-07T12:48:44.779Z,17.2
2023-06-07T12:49:51.917Z,17.2
2023-06-07T12:50:59.003Z,17.2
2023-06-07T12:52:05.620Z,17.2
2023-06-07T12:53:12.698Z,17.3
2023-06-07T12:54:19.774Z,17.3
2023-06-07T12:55:27.015Z,17.3
2023-06-07T12:56:33.979Z,17.3
2023-06-07T12:57:40.616Z,17.3
2023-06-07T12:58:47.704Z,17.3
2023-06-07T12:59:54.789Z,17.3
2023-06-07T13:01:01.982Z,17.2
2023-06-07T13:02:09.060Z,17.2
2023-06-07T13:03:15.743Z,17.2
2023-06-07T13:04:22.665Z,17.2
2023-06-07T13:05:29.843Z,17.2
2023-06-07T13:06:36.907Z,17.2
2023-06-07T13:07:43.509Z,17.3
2023-06-07T13:08:50.576Z,17.2
2023-06-07T13:09:57.706Z,17.3
2023-06-07T13:11:04.816Z,17.3
2023-06-07T13:12:11.898Z,17.3
2023-06-07T13:13:18.538Z,17.4
2023-06-07T13:14:25.612Z,17.4
2023-06-07T13:15:32.714Z,17.4
2023-06-07T13:16:39.927Z,17.4
2023-06-07T13:17:47.100Z,17.4
2023-06-07T13:18:53.533Z,17.4
2023-06-07T13:20:00.602Z,17.4
2023-06-07T13:21:07.759Z,17.4
2023-06-07T13:22:14.867Z,17.4
2023-06-07T13:23:21.914Z,17.4
2023-06-07T13:24:28.527Z,17.4
2023-06-07T13:25:35.627Z,17.5
2023-06-07T13:26:42.718Z,17.4
2023-06-07T13:27:49.826Z,17.4
2023-06-07T13:28:56.934Z,17.4
2023-06-07T13:30:03.866Z,17.5
2023-06-07T13:31:10.625Z,17.6
2023-06-07T13:32:17.925Z,17.6
2023-06-07T13:33:24.891Z,17.6
2023-06-07T13:34:31.937Z,17.6
2023-06-07T13:35:38.530Z,17.6
2023-06-07T13:36:45.650Z,17.6
2023-06-07T13:37:52.743Z,17.7
2023-06-07T13:38:59.901Z,17.7
2023-06-07T13:40:07.297Z,17.7
2023-06-07T13:41:15.734Z,17.7
2023-06-07T13:42:20.631Z,17.8
2023-06-07T13:43:35.343Z,17.7
2023-06-07T13:44:34.936Z,17.7
2023-06-07T13:45:42.273Z,17.7
2023-06-07T13:46:48.602Z,17.7
2023-06-07T13:49:02.729Z,17.8
2023-06-07T13:50:10.209Z,17.8
2023-06-07T13:51:17.625Z,17.8
2023-06-07T13:52:23.628Z,17.8
2023-06-07T13:53:32.301Z,17.7
2023-06-07T13:54:37.770Z,17.7
2023-06-07T13:55:44.896Z,17.7
2023-06-07T13:56:55.766Z,17.7
2023-06-07T13:57:58.561Z,17.7
2023-06-07T13:59:05.694Z,17.7
2023-06-07T14:00:12.839Z,17.7
2023-06-07T14:01:20.517Z,17.7
2023-06-07T14:04:44.692Z,17.7
2023-06-07T14:05:47.802Z,17.7
2023-06-07T14:06:54.966Z,17.7
2023-06-07T14:08:01.987Z,17.7
2023-06-07T14:09:08.638Z,17.7
2023-06-07T14:11:26.077Z,17.6
2023-06-07T14:13:37.075Z,17.7
2023-06-07T14:14:45.413Z,17.7
2023-06-07T14:15:50.726Z,17.7
2023-06-07T14:16:58.157Z,17.7
2023-06-07T14:18:05.042Z,17.7
2023-06-07T14:19:12.006Z,17.8
2023-06-07T14:20:18.586Z,17.8
2023-06-07T14:21:26.160Z,17.8
2023-06-07T14:22:32.824Z,17.8
2023-06-07T14:23:39.986Z,17.8
2023-06-07T14:24:47.061Z,17.8
2023-06-07T14:25:53.596Z,17.7
2023-06-07T14:27:00.754Z,17.7
2023-06-07T14:28:07.824Z,17.8
2023-06-07T14:29:14.945Z,17.8
2023-06-07T14:30:21.998Z,17.8
2023-06-07T14:31:28.747Z,17.8
2023-06-07T14:32:35.927Z,17.7
2023-06-07T14:33:42.803Z,17.7
2023-06-07T14:34:49.992Z,17.6
2023-06-07T14:35:56.544Z,17.6
2023-06-07T14:37:03.596Z,17.7
2023-06-07T14:38:10.779Z,17.6
2023-06-07T14:39:17.817Z,17.7
2023-06-07T14:40:24.964Z,17.7
2023-06-07T14:41:31.510Z,17.7
2023-06-07T14:42:38.606Z,17.7
2023-06-07T14:43:45.804Z,17.7
2023-06-07T14:44:52.822Z,17.7
2023-06-07T14:45:59.973Z,17.6
2023-06-07T14:47:07.576Z,17.6
2023-06-07T14:48:13.723Z,17.7
2023-06-07T14:49:20.774Z,17.6
2023-06-07T14:50:27.848Z,17.6
2023-06-07T14:52:41.526Z,17.7
2023-06-07T14:53:48.620Z,17.7
2023-06-07T14:54:55.812Z,17.8
2023-06-07T14:56:02.830Z,17.8
2023-06-07T14:57:09.963Z,17.8
2023-06-07T14:58:16.647Z,17.8
2023-06-07T14:59:23.626Z,17.8
2023-06-07T15:00:30.815Z,17.8
2023-06-07T15:01:37.944Z,17.7
2023-06-07T15:02:45.029Z,17.8
2023-06-07T15:03:51.642Z,17.8
2023-06-07T15:04:58.681Z,17.7
2023-06-07T15:06:06.534Z,17.7
2023-06-07T15:07:12.858Z,17.6
2023-06-07T15:08:19.995Z,17.6
2023-06-07T15:09:26.650Z,17.6
2023-06-07T15:10:33.644Z,17.6
2023-06-07T15:11:40.738Z,17.6
2023-06-07T15:12:47.871Z,17.6
2023-06-07T15:13:54.966Z,17.6
2023-06-07T15:15:01.575Z,17.6
2023-06-07T15:16:08.701Z,17.6
2023-06-07T15:17:15.767Z,17.6
2023-06-07T15:18:22.932Z,17.6
2023-06-07T15:19:29.558Z,17.6
2023-06-07T15:20:36.559Z,17.5
2023-06-07T15:21:43.661Z,17.6
2023-06-07T15:22:50.746Z,17.5
2023-06-07T15:23:57.918Z,17.5
2023-06-07T15:25:04.996Z,17.5
2023-06-07T15:26:11.550Z,17.5
2023-06-07T15:27:18.684Z,17.5
2023-06-07T15:28:25.824Z,17.5
2023-06-07T15:29:32.869Z,17.4
2023-06-07T15:30:39.489Z,17.4
2023-06-07T15:31:46.664Z,17.3
2023-06-07T15:32:53.694Z,17.3
2023-06-07T15:34:00.778Z,17.3
2023-06-07T15:35:10.000Z,17.3
2023-06-07T15:36:14.504Z,17.4
2023-06-07T15:37:21.607Z,17.4